sensor_id;sensor_type;location;lat;lon;timestamp;pressure;altitude;pressure_sealevel;temperature;humidity
8286;BME280;4181;43.416;24.598;2023-04-22T00:00:04;99726.59;;;16.31;100.00
8286;BME280;4181;43.416;24.598;2023-04-22T00:02:30;99720.78;;;16.33;100.00
8286;BME280;4181;43.416;24.598;2023-04-22T00:04:56;99723.75;;;16.18;100.00
8286;BME280;4181;43.416;24.598;2023-04-22T00:07:22;99709.63;;;16.06;100.00
8286;BME280;4181;43.416;24.598;2023-04-22T00:09:48;99722.44;;;15.97;100.00
8286;BME280;4181;43.416;24.598;2023-04-22T00:12:15;99725.63;;;15.85;100.00
8286;BME280;4181;43.416;24.598;2023-04-22T00:14:40;99732.94;;;15.71;100.00
8286;BME280;4181;43.416;24.598;2023-04-22T00:17:06;99728.69;;;15.60;100.00
8286;BME280;4181;43.416;24.598;2023-04-22T00:19:32;99730.31;;;15.61;100.00
8286;BME280;4181;43.416;24.598;2023-04-22T00:21:58;99721.25;;;15.61;100.00
8286;BME280;4181;43.416;24.598;2023-04-22T00:24:23;99720.44;;;15.60;100.00
8286;BME280;4181;43.416;24.598;2023-04-22T00:26:48;99729.50;;;15.61;100.00
8286;BME280;4181;43.416;24.598;2023-04-22T00:29:14;99735.47;;;15.68;100.00
8286;BME280;4181;43.416;24.598;2023-04-22T00:31:39;99734.06;;;15.70;100.00
8286;BME280;4181;43.416;24.598;2023-04-22T00:34:05;99736.00;;;15.70;100.00
8286;BME280;4181;43.416;24.598;2023-04-22T00:36:30;99737.31;;;15.72;100.00
8286;BME280;4181;43.416;24.598;2023-04-22T00:38:56;99736.00;;;15.46;100.00
8286;BME280;4181;43.416;24.598;2023-04-22T00:41:21;99751.97;;;15.44;100.00
8286;BME280;4181;43.416;24.598;2023-04-22T00:43:47;99772.03;;;15.45;100.00
8286;BME280;4181;43.416;24.598;2023-04-22T00:46:15;99758.81;;;15.47;100.00
8286;BME280;4181;43.416;24.598;2023-04-22T00:48:40;99752.56;;;15.41;100.00
8286;BME280;4181;43.416;24.598;2023-04-22T00:51:06;99756.63;;;15.20;100.00
8286;BME280;4181;43.416;24.598;2023-04-22T00:53:31;99753.25;;;14.99;100.00
8286;BME280;4181;43.416;24.598;2023-04-22T00:55:57;99750.44;;;14.76;100.00
8286;BME280;4181;43.416;24.598;2023-04-22T00:58:27;99751.50;;;14.80;100.00
8286;BME280;4181;43.416;24.598;2023-04-22T01:00:53;99755.13;;;14.75;100.00
8286;BME280;4181;43.416;24.598;2023-04-22T01:03:19;99752.69;;;14.69;100.00
8286;BME280;4181;43.416;24.598;2023-04-22T01:05:48;99760.97;;;14.64;100.00
8286;BME280;4181;43.416;24.598;2023-04-22T01:08:14;99752.31;;;14.47;100.00
8286;BME280;4181;43.416;24.598;2023-04-22T01:10:40;99751.41;;;14.13;100.00
8286;BME280;4181;43.416;24.598;2023-04-22T01:13:07;99748.13;;;14.11;100.00
8286;BME280;4181;43.416;24.598;2023-04-22T01:15:32;99742.41;;;14.02;100.00
8286;BME280;4181;43.416;24.598;2023-04-22T01:17:59;99735.88;;;13.98;100.00
8286;BME280;4181;43.416;24.598;2023-04-22T01:20:28;99725.44;;;14.00;100.00
8286;BME280;4181;43.416;24.598;2023-04-22T01:22:55;99722.94;;;14.09;100.00
8286;BME280;4181;43.416;24.598;2023-04-22T01:25:27;99731.81;;;14.34;100.00
8286;BME280;4181;43.416;24.598;2023-04-22T01:27:53;99733.41;;;14.02;100.00
8286;BME280;4181;43.416;24.598;2023-04-22T01:30:19;99740.00;;;13.95;100.00
8286;BME280;4181;43.416;24.598;2023-04-22T01:32:45;99739.78;;;13.82;100.00
8286;BME280;4181;43.416;24.598;2023-04-22T01:35:11;99746.72;;;13.69;100.00
8286;BME280;4181;43.416;24.598;2023-04-22T01:37:36;99752.28;;;13.49;100.00
8286;BME280;4181;43.416;24.598;2023-04-22T01:40:03;99747.63;;;13.45;100.00
8286;BME280;4181;43.416;24.598;2023-04-22T01:42:29;99747.31;;;13.56;100.00
8286;BME280;4181;43.416;24.598;2023-04-22T01:44:55;99739.88;;;13.62;100.00
8286;BME280;4181;43.416;24.598;2023-04-22T01:47:20;99736.56;;;13.75;100.00
8286;BME280;4181;43.416;24.598;2023-04-22T01:49:45;99730.13;;;13.94;100.00
8286;BME280;4181;43.416;24.598;2023-04-22T01:52:11;99728.56;;;13.83;100.00
8286;BME280;4181;43.416;24.598;2023-04-22T01:54:37;99729.34;;;13.89;100.00
8286;BME280;4181;43.416;24.598;2023-04-22T01:57:08;99716.97;;;13.96;100.00
8286;BME280;4181;43.416;24.598;2023-04-22T01:59:35;99718.34;;;13.94;100.00
8286;BME280;4181;43.416;24.598;2023-04-22T02:02:01;99709.84;;;13.90;100.00
8286;BME280;4181;43.416;24.598;2023-04-22T02:04:26;99698.41;;;13.83;100.00
8286;BME280;4181;43.416;24.598;2023-04-22T02:06:51;99702.22;;;13.82;100.00
8286;BME280;4181;43.416;24.598;2023-04-22T02:09:17;99707.19;;;13.75;100.00
8286;BME280;4181;43.416;24.598;2023-04-22T02:11:42;99699.13;;;13.94;100.00
8286;BME280;4181;43.416;24.598;2023-04-22T02:14:08;99694.28;;;13.81;100.00
8286;BME280;4181;43.416;24.598;2023-04-22T02:16:33;99697.31;;;13.79;100.00
8286;BME280;4181;43.416;24.598;2023-04-22T02:18:58;99696.78;;;13.77;100.00
8286;BME280;4181;43.416;24.598;2023-04-22T02:21:25;99688.03;;;13.70;100.00
8286;BME280;4181;43.416;24.598;2023-04-22T02:23:52;99692.97;;;13.73;100.00
8286;BME280;4181;43.416;24.598;2023-04-22T02:26:17;99679.19;;;13.88;100.00
8286;BME280;4181;43.416;24.598;2023-04-22T02:28:43;99679.03;;;14.09;100.00
8286;BME280;4181;43.416;24.598;2023-04-22T02:31:08;99688.56;;;14.16;100.00
8286;BME280;4181;43.416;24.598;2023-04-22T02:33:34;99694.63;;;14.13;100.00
8286;BME280;4181;43.416;24.598;2023-04-22T02:36:00;99704.72;;;14.28;100.00
8286;BME280;4181;43.416;24.598;2023-04-22T02:38:26;99704.03;;;14.41;100.00
8286;BME280;4181;43.416;24.598;2023-04-22T02:40:51;99702.41;;;14.40;100.00
8286;BME280;4181;43.416;24.598;2023-04-22T02:43:16;99698.47;;;14.51;100.00
8286;BME280;4181;43.416;24.598;2023-04-22T02:45:42;99709.91;;;14.63;100.00
8286;BME280;4181;43.416;24.598;2023-04-22T02:48:07;99697.53;;;14.65;100.00
8286;BME280;4181;43.416;24.598;2023-04-22T02:50:33;99704.47;;;14.58;100.00
8286;BME280;4181;43.416;24.598;2023-04-22T02:52:58;99694.84;;;14.60;100.00
8286;BME280;4181;43.416;24.598;2023-04-22T02:55:23;99701.50;;;14.49;100.00
8286;BME280;4181;43.416;24.598;2023-04-22T02:57:49;99710.63;;;14.45;100.00
8286;BME280;4181;43.416;24.598;2023-04-22T03:00:15;99706.59;;;14.32;100.00
8286;BME280;4181;43.416;24.598;2023-04-22T03:02:40;99704.66;;;14.33;100.00
8286;BME280;4181;43.416;24.598;2023-04-22T03:05:06;99714.31;;;14.30;100.00
8286;BME280;4181;43.416;24.598;2023-04-22T03:07:31;99712.31;;;14.36;100.00
8286;BME280;4181;43.416;24.598;2023-04-22T03:09:57;99709.50;;;14.46;100.00
8286;BME280;4181;43.416;24.598;2023-04-22T03:12:23;99707.66;;;14.36;100.00
8286;BME280;4181;43.416;24.598;2023-04-22T03:14:49;99717.47;;;14.42;100.00
8286;BME280;4181;43.416;24.598;2023-04-22T03:17:14;99713.66;;;14.43;100.00
8286;BME280;4181;43.416;24.598;2023-04-22T03:19:40;99715.03;;;14.41;100.00
8286;BME280;4181;43.416;24.598;2023-04-22T03:22:05;99725.38;;;14.49;100.00
8286;BME280;4181;43.416;24.598;2023-04-22T03:24:31;99712.75;;;14.53;100.00
8286;BME280;4181;43.416;24.598;2023-04-22T03:26:56;99717.09;;;14.54;100.00
8286;BME280;4181;43.416;24.598;2023-04-22T03:29:22;99728.06;;;14.59;100.00
8286;BME280;4181;43.416;24.598;2023-04-22T03:31:47;99730.75;;;14.64;100.00
8286;BME280;4181;43.416;24.598;2023-04-22T03:34:12;99737.72;;;14.51;100.00
8286;BME280;4181;43.416;24.598;2023-04-22T03:36:38;99744.13;;;14.42;100.00
8286;BME280;4181;43.416;24.598;2023-04-22T03:39:03;99748.69;;;14.13;100.00
8286;BME280;4181;43.416;24.598;2023-04-22T03:41:29;99738.69;;;13.83;100.00
8286;BME280;4181;43.416;24.598;2023-04-22T03:43:54;99746.66;;;13.79;100.00
8286;BME280;4181;43.416;24.598;2023-04-22T03:46:20;99742.56;;;13.72;100.00
8286;BME280;4181;43.416;24.598;2023-04-22T03:48:45;99741.22;;;13.74;100.00
8286;BME280;4181;43.416;24.598;2023-04-22T03:51:11;99724.69;;;13.89;100.00
8286;BME280;4181;43.416;24.598;2023-04-22T03:53:36;99732.41;;;13.77;100.00
8286;BME280;4181;43.416;24.598;2023-04-22T03:56:02;99722.78;;;13.85;100.00
8286;BME280;4181;43.416;24.598;2023-04-22T03:58:27;99729.00;;;14.00;100.00
8286;BME280;4181;43.416;24.598;2023-04-22T04:00:53;99723.69;;;14.14;100.00
8286;BME280;4181;43.416;24.598;2023-04-22T04:03:18;99728.94;;;14.11;100.00
8286;BME280;4181;43.416;24.598;2023-04-22T04:05:44;99733.34;;;14.07;100.00
8286;BME280;4181;43.416;24.598;2023-04-22T04:08:09;99730.56;;;14.17;100.00
8286;BME280;4181;43.416;24.598;2023-04-22T04:10:36;99735.44;;;14.25;100.00
8286;BME280;4181;43.416;24.598;2023-04-22T04:13:01;99741.59;;;14.07;100.00
8286;BME280;4181;43.416;24.598;2023-04-22T04:15:27;99746.75;;;14.13;100.00
8286;BME280;4181;43.416;24.598;2023-04-22T04:17:52;99741.50;;;14.22;100.00
8286;BME280;4181;43.416;24.598;2023-04-22T04:20:20;99743.28;;;13.97;100.00
8286;BME280;4181;43.416;24.598;2023-04-22T04:22:45;99736.34;;;14.10;100.00
8286;BME280;4181;43.416;24.598;2023-04-22T04:25:11;99730.53;;;14.27;100.00
8286;BME280;4181;43.416;24.598;2023-04-22T04:27:36;99733.22;;;14.32;100.00
8286;BME280;4181;43.416;24.598;2023-04-22T04:30:06;99742.47;;;14.41;100.00
8286;BME280;4181;43.416;24.598;2023-04-22T04:32:32;99739.06;;;14.54;100.00
8286;BME280;4181;43.416;24.598;2023-04-22T04:35:00;99744.78;;;14.62;100.00
8286;BME280;4181;43.416;24.598;2023-04-22T04:37:26;99743.97;;;14.62;100.00
8286;BME280;4181;43.416;24.598;2023-04-22T04:39:52;99749.78;;;14.55;100.00
8286;BME280;4181;43.416;24.598;2023-04-22T04:42:18;99748.59;;;14.66;100.00
8286;BME280;4181;43.416;24.598;2023-04-22T04:44:44;99758.41;;;14.72;100.00
8286;BME280;4181;43.416;24.598;2023-04-22T04:47:11;99762.25;;;14.76;100.00
8286;BME280;4181;43.416;24.598;2023-04-22T04:49:37;99764.13;;;14.81;100.00
8286;BME280;4181;43.416;24.598;2023-04-22T04:52:04;99770.34;;;14.91;100.00
8286;BME280;4181;43.416;24.598;2023-04-22T04:54:31;99774.47;;;14.89;100.00
8286;BME280;4181;43.416;24.598;2023-04-22T04:56:57;99768.94;;;14.94;100.00
8286;BME280;4181;43.416;24.598;2023-04-22T04:59:22;99779.09;;;14.98;100.00
8286;BME280;4181;43.416;24.598;2023-04-22T05:01:48;99771.09;;;15.02;100.00
8286;BME280;4181;43.416;24.598;2023-04-22T05:04:13;99773.00;;;15.01;100.00
8286;BME280;4181;43.416;24.598;2023-04-22T05:06:39;99773.84;;;15.02;100.00
8286;BME280;4181;43.416;24.598;2023-04-22T05:09:04;99770.50;;;15.05;100.00
8286;BME280;4181;43.416;24.598;2023-04-22T05:11:32;99767.41;;;15.11;100.00
8286;BME280;4181;43.416;24.598;2023-04-22T05:13:57;99773.69;;;15.17;100.00
8286;BME280;4181;43.416;24.598;2023-04-22T05:16:23;99762.09;;;15.20;100.00
8286;BME280;4181;43.416;24.598;2023-04-22T05:18:48;99767.38;;;15.16;100.00
8286;BME280;4181;43.416;24.598;2023-04-22T05:21:14;99771.44;;;15.19;100.00
8286;BME280;4181;43.416;24.598;2023-04-22T05:23:40;99766.25;;;15.17;100.00
8286;BME280;4181;43.416;24.598;2023-04-22T05:26:06;99789.34;;;15.16;100.00
8286;BME280;4181;43.416;24.598;2023-04-22T05:28:31;99788.22;;;15.17;100.00
8286;BME280;4181;43.416;24.598;2023-04-22T05:30:57;99792.88;;;15.22;100.00
8286;BME280;4181;43.416;24.598;2023-04-22T05:33:22;99796.81;;;15.11;100.00
8286;BME280;4181;43.416;24.598;2023-04-22T05:35:48;99796.31;;;15.04;100.00
8286;BME280;4181;43.416;24.598;2023-04-22T05:38:13;99805.00;;;15.16;100.00
8286;BME280;4181;43.416;24.598;2023-04-22T05:40:38;99810.47;;;15.21;100.00
8286;BME280;4181;43.416;24.598;2023-04-22T05:43:04;99810.94;;;15.28;100.00
8286;BME280;4181;43.416;24.598;2023-04-22T05:45:30;99805.44;;;15.28;100.00
8286;BME280;4181;43.416;24.598;2023-04-22T05:47:56;99806.56;;;15.27;100.00
8286;BME280;4181;43.416;24.598;2023-04-22T05:50:21;99798.31;;;15.27;100.00
8286;BME280;4181;43.416;24.598;2023-04-22T05:52:46;99810.31;;;15.36;100.00
8286;BME280;4181;43.416;24.598;2023-04-22T05:55:12;99816.63;;;15.37;100.00
8286;BME280;4181;43.416;24.598;2023-04-22T05:57:37;99813.06;;;15.36;100.00
8286;BME280;4181;43.416;24.598;2023-04-22T06:00:03;99816.91;;;15.40;100.00
8286;BME280;4181;43.416;24.598;2023-04-22T06:02:29;99827.31;;;15.43;100.00
8286;BME280;4181;43.416;24.598;2023-04-22T06:04:54;99824.53;;;15.48;100.00
8286;BME280;4181;43.416;24.598;2023-04-22T06:07:20;99817.66;;;15.46;100.00
8286;BME280;4181;43.416;24.598;2023-04-22T06:09:45;99821.66;;;15.58;100.00
8286;BME280;4181;43.416;24.598;2023-04-22T06:12:11;99825.50;;;15.57;100.00
8286;BME280;4181;43.416;24.598;2023-04-22T06:14:36;99828.19;;;15.62;100.00
8286;BME280;4181;43.416;24.598;2023-04-22T06:17:02;99831.34;;;15.51;100.00
8286;BME280;4181;43.416;24.598;2023-04-22T06:19:28;99837.09;;;15.54;100.00
8286;BME280;4181;43.416;24.598;2023-04-22T06:21:53;99828.00;;;15.59;100.00
8286;BME280;4181;43.416;24.598;2023-04-22T06:24:20;99841.94;;;15.62;100.00
8286;BME280;4181;43.416;24.598;2023-04-22T06:26:46;99852.06;;;15.38;100.00
8286;BME280;4181;43.416;24.598;2023-04-22T06:29:12;99843.75;;;15.48;100.00
8286;BME280;4181;43.416;24.598;2023-04-22T06:31:37;99845.75;;;15.38;100.00
8286;BME280;4181;43.416;24.598;2023-04-22T06:34:03;99840.44;;;15.17;100.00
8286;BME280;4181;43.416;24.598;2023-04-22T06:36:30;99821.69;;;14.96;100.00
8286;BME280;4181;43.416;24.598;2023-04-22T06:38:57;99808.47;;;14.98;100.00
8286;BME280;4181;43.416;24.598;2023-04-22T06:41:22;99809.06;;;14.95;100.00
8286;BME280;4181;43.416;24.598;2023-04-22T06:43:48;99806.38;;;15.18;100.00
8286;BME280;4181;43.416;24.598;2023-04-22T06:46:15;99813.75;;;15.23;100.00
8286;BME280;4181;43.416;24.598;2023-04-22T06:48:41;99807.38;;;15.27;100.00
8286;BME280;4181;43.416;24.598;2023-04-22T06:51:06;99814.88;;;15.22;100.00
8286;BME280;4181;43.416;24.598;2023-04-22T06:53:31;99800.72;;;15.05;100.00
8286;BME280;4181;43.416;24.598;2023-04-22T06:55:57;99823.84;;;15.27;100.00
8286;BME280;4181;43.416;24.598;2023-04-22T06:58:22;99814.97;;;15.41;100.00
8286;BME280;4181;43.416;24.598;2023-04-22T07:00:48;99832.66;;;15.58;100.00
8286;BME280;4181;43.416;24.598;2023-04-22T07:03:13;99826.22;;;15.68;100.00
8286;BME280;4181;43.416;24.598;2023-04-22T07:05:39;99822.81;;;15.76;100.00
8286;BME280;4181;43.416;24.598;2023-04-22T07:08:04;99835.13;;;15.83;100.00
8286;BME280;4181;43.416;24.598;2023-04-22T07:10:30;99844.31;;;15.97;100.00
8286;BME280;4181;43.416;24.598;2023-04-22T07:12:55;99850.50;;;16.08;100.00
8286;BME280;4181;43.416;24.598;2023-04-22T07:15:20;99850.94;;;15.96;100.00
8286;BME280;4181;43.416;24.598;2023-04-22T07:17:46;99865.34;;;16.12;100.00
8286;BME280;4181;43.416;24.598;2023-04-22T07:20:11;99868.25;;;16.20;100.00
8286;BME280;4181;43.416;24.598;2023-04-22T07:22:37;99876.38;;;16.30;100.00
8286;BME280;4181;43.416;24.598;2023-04-22T07:25:03;99884.78;;;16.20;100.00
8286;BME280;4181;43.416;24.598;2023-04-22T07:27:28;99884.25;;;16.18;100.00
8286;BME280;4181;43.416;24.598;2023-04-22T07:29:54;99885.25;;;16.04;100.00
8286;BME280;4181;43.416;24.598;2023-04-22T07:32:19;99888.31;;;15.97;100.00
8286;BME280;4181;43.416;24.598;2023-04-22T07:34:45;99897.81;;;15.86;100.00
8286;BME280;4181;43.416;24.598;2023-04-22T07:37:10;99895.72;;;15.78;100.00
8286;BME280;4181;43.416;24.598;2023-04-22T07:39:35;99889.13;;;15.74;100.00
8286;BME280;4181;43.416;24.598;2023-04-22T07:42:01;99880.84;;;15.79;100.00
8286;BME280;4181;43.416;24.598;2023-04-22T07:44:27;99865.03;;;15.90;100.00
8286;BME280;4181;43.416;24.598;2023-04-22T07:46:53;99874.44;;;16.07;100.00
8286;BME280;4181;43.416;24.598;2023-04-22T07:49:18;99882.94;;;16.11;100.00
8286;BME280;4181;43.416;24.598;2023-04-22T07:51:44;99886.59;;;16.06;100.00
8286;BME280;4181;43.416;24.598;2023-04-22T07:54:09;99877.19;;;16.07;100.00
8286;BME280;4181;43.416;24.598;2023-04-22T07:56:35;99884.59;;;16.12;100.00
8286;BME280;4181;43.416;24.598;2023-04-22T07:59:01;99896.16;;;16.09;100.00
8286;BME280;4181;43.416;24.598;2023-04-22T08:01:26;99902.84;;;16.26;100.00
8286;BME280;4181;43.416;24.598;2023-04-22T08:03:52;99899.50;;;16.29;100.00
8286;BME280;4181;43.416;24.598;2023-04-22T08:06:17;99893.56;;;16.41;100.00
8286;BME280;4181;43.416;24.598;2023-04-22T08:08:43;99907.53;;;16.50;100.00
8286;BME280;4181;43.416;24.598;2023-04-22T08:11:08;99908.38;;;16.50;100.00
8286;BME280;4181;43.416;24.598;2023-04-22T08:13:34;99903.19;;;16.43;100.00
8286;BME280;4181;43.416;24.598;2023-04-22T08:16:00;99911.94;;;16.51;100.00
8286;BME280;4181;43.416;24.598;2023-04-22T08:18:27;99898.31;;;16.59;100.00
8286;BME280;4181;43.416;24.598;2023-04-22T08:20:53;99910.22;;;16.55;100.00
8286;BME280;4181;43.416;24.598;2023-04-22T08:23:18;99900.72;;;16.66;100.00
8286;BME280;4181;43.416;24.598;2023-04-22T08:25:46;99888.50;;;16.72;100.00
8286;BME280;4181;43.416;24.598;2023-04-22T08:28:12;99910.69;;;16.62;100.00
8286;BME280;4181;43.416;24.598;2023-04-22T08:30:37;99904.66;;;16.60;100.00
8286;BME280;4181;43.416;24.598;2023-04-22T08:33:03;99906.25;;;16.66;100.00
8286;BME280;4181;43.416;24.598;2023-04-22T08:35:28;99908.41;;;16.69;100.00
8286;BME280;4181;43.416;24.598;2023-04-22T08:37:54;99901.84;;;16.83;100.00
8286;BME280;4181;43.416;24.598;2023-04-22T08:40:20;99906.59;;;16.96;100.00
8286;BME280;4181;43.416;24.598;2023-04-22T08:42:45;99887.91;;;17.12;100.00
8286;BME280;4181;43.416;24.598;2023-04-22T08:45:12;99904.13;;;17.32;100.00
8286;BME280;4181;43.416;24.598;2023-04-22T08:47:38;99906.09;;;17.45;100.00
8286;BME280;4181;43.416;24.598;2023-04-22T08:50:04;99909.22;;;17.57;100.00
8286;BME280;4181;43.416;24.598;2023-04-22T08:52:30;99913.63;;;17.58;100.00
8286;BME280;4181;43.416;24.598;2023-04-22T08:54:56;99908.88;;;17.77;100.00
8286;BME280;4181;43.416;24.598;2023-04-22T08:57:22;99915.63;;;17.98;100.00
8286;BME280;4181;43.416;24.598;2023-04-22T08:59:48;99923.31;;;18.01;100.00
8286;BME280;4181;43.416;24.598;2023-04-22T09:02:23;99928.13;;;17.96;100.00
8286;BME280;4181;43.416;24.598;2023-04-22T09:04:51;99948.53;;;17.81;100.00
8286;BME280;4181;43.416;24.598;2023-04-22T09:07:23;99944.13;;;17.29;100.00
8286;BME280;4181;43.416;24.598;2023-04-22T09:09:53;99934.09;;;17.20;100.00
8286;BME280;4181;43.416;24.598;2023-04-22T09:12:19;99940.19;;;17.17;100.00
8286;BME280;4181;43.416;24.598;2023-04-22T09:14:45;99934.38;;;17.18;100.00
8286;BME280;4181;43.416;24.598;2023-04-22T09:17:14;99925.81;;;17.20;100.00
8286;BME280;4181;43.416;24.598;2023-04-22T09:19:41;99939.66;;;17.33;100.00
8286;BME280;4181;43.416;24.598;2023-04-22T09:22:09;99942.34;;;17.20;100.00
8286;BME280;4181;43.416;24.598;2023-04-22T09:24:41;99934.22;;;17.47;100.00
8286;BME280;4181;43.416;24.598;2023-04-22T09:27:07;99930.16;;;17.39;100.00
8286;BME280;4181;43.416;24.598;2023-04-22T09:29:34;99937.69;;;17.52;100.00
8286;BME280;4181;43.416;24.598;2023-04-22T09:31:59;99935.06;;;17.61;100.00
8286;BME280;4181;43.416;24.598;2023-04-22T09:34:26;99931.34;;;17.71;100.00
8286;BME280;4181;43.416;24.598;2023-04-22T09:36:52;99935.22;;;17.69;100.00
8286;BME280;4181;43.416;24.598;2023-04-22T09:39:18;99927.28;;;17.95;100.00
8286;BME280;4181;43.416;24.598;2023-04-22T09:41:43;99932.72;;;18.00;100.00
8286;BME280;4181;43.416;24.598;2023-04-22T09:44:13;99941.63;;;17.97;100.00
8286;BME280;4181;43.416;24.598;2023-04-22T09:46:41;99934.97;;;18.12;100.00
8286;BME280;4181;43.416;24.598;2023-04-22T09:49:06;99947.03;;;17.89;100.00
8286;BME280;4181;43.416;24.598;2023-04-22T09:51:32;99943.94;;;17.90;100.00
8286;BME280;4181;43.416;24.598;2023-04-22T09:54:04;99948.50;;;18.27;100.00
8286;BME280;4181;43.416;24.598;2023-04-22T09:59:08;99949.72;;;18.34;100.00
8286;BME280;4181;43.416;24.598;2023-04-22T10:01:38;99936.53;;;18.72;100.00
8286;BME280;4181;43.416;24.598;2023-04-22T10:04:11;99949.13;;;18.64;100.00
8286;BME280;4181;43.416;24.598;2023-04-22T10:06:39;99965.47;;;18.74;100.00
8286;BME280;4181;43.416;24.598;2023-04-22T10:09:04;99962.22;;;18.72;100.00
8286;BME280;4181;43.416;24.598;2023-04-22T10:11:31;99951.50;;;19.07;100.00
8286;BME280;4181;43.416;24.598;2023-04-22T10:13:57;99938.84;;;19.28;100.00
8286;BME280;4181;43.416;24.598;2023-04-22T10:16:26;99947.75;;;19.25;100.00
8286;BME280;4181;43.416;24.598;2023-04-22T10:18:54;99950.03;;;19.23;100.00
8286;BME280;4181;43.416;24.598;2023-04-22T10:21:22;99925.88;;;19.15;100.00
8286;BME280;4181;43.416;24.598;2023-04-22T10:23:49;99935.69;;;19.21;100.00
8286;BME280;4181;43.416;24.598;2023-04-22T10:27:16;99928.25;;;19.43;100.00
8286;BME280;4181;43.416;24.598;2023-04-22T10:29:24;99918.38;;;19.51;100.00
8286;BME280;4181;43.416;24.598;2023-04-22T10:31:56;99919.94;;;19.65;100.00
8286;BME280;4181;43.416;24.598;2023-04-22T10:34:29;99915.75;;;19.46;100.00
8286;BME280;4181;43.416;24.598;2023-04-22T10:37:05;99913.91;;;19.63;100.00
8286;BME280;4181;43.416;24.598;2023-04-22T10:39:31;99913.81;;;19.77;100.00
8286;BME280;4181;43.416;24.598;2023-04-22T10:47:34;99891.25;;;20.23;100.00
8286;BME280;4181;43.416;24.598;2023-04-22T10:52:54;99919.59;;;19.89;100.00
8286;BME280;4181;43.416;24.598;2023-04-22T10:55:21;99933.13;;;19.68;100.00
8286;BME280;4181;43.416;24.598;2023-04-22T10:57:47;99921.94;;;19.73;100.00
8286;BME280;4181;43.416;24.598;2023-04-22T11:05:30;99940.47;;;19.29;100.00
8286;BME280;4181;43.416;24.598;2023-04-22T11:08:02;99929.84;;;19.36;100.00
8286;BME280;4181;43.416;24.598;2023-04-22T11:10:42;99933.69;;;19.13;100.00
8286;BME280;4181;43.416;24.598;2023-04-22T11:13:18;99931.78;;;19.22;100.00
8286;BME280;4181;43.416;24.598;2023-04-22T11:15:53;99935.94;;;19.11;100.00
8286;BME280;4181;43.416;24.598;2023-04-22T11:18:24;99937.56;;;19.12;100.00
8286;BME280;4181;43.416;24.598;2023-04-22T11:20:50;99932.47;;;19.05;100.00
8286;BME280;4181;43.416;24.598;2023-04-22T11:23:25;99923.38;;;19.27;100.00
8286;BME280;4181;43.416;24.598;2023-04-22T11:26:01;99917.94;;;19.57;100.00
8286;BME280;4181;43.416;24.598;2023-04-22T11:28:27;99910.03;;;20.03;100.00
8286;BME280;4181;43.416;24.598;2023-04-22T11:31:03;99895.66;;;20.24;100.00
8286;BME280;4181;43.416;24.598;2023-04-22T11:33:33;99916.41;;;20.04;100.00
8286;BME280;4181;43.416;24.598;2023-04-22T11:35:59;99914.25;;;19.92;100.00
8286;BME280;4181;43.416;24.598;2023-04-22T11:38:25;99919.97;;;20.04;100.00
8286;BME280;4181;43.416;24.598;2023-04-22T11:40:53;99913.91;;;20.16;100.00
8286;BME280;4181;43.416;24.598;2023-04-22T11:43:19;99911.84;;;20.08;100.00
8286;BME280;4181;43.416;24.598;2023-04-22T11:45:45;99913.38;;;20.14;100.00
8286;BME280;4181;43.416;24.598;2023-04-22T11:48:10;99907.22;;;20.17;100.00
8286;BME280;4181;43.416;24.598;2023-04-22T11:50:38;99902.88;;;20.42;100.00
8286;BME280;4181;43.416;24.598;2023-04-22T11:53:15;99887.81;;;20.82;100.00
8286;BME280;4181;43.416;24.598;2023-04-22T11:55:43;99897.91;;;20.69;100.00
8286;BME280;4181;43.416;24.598;2023-04-22T12:00:40;99892.53;;;20.81;100.00
8286;BME280;4181;43.416;24.598;2023-04-22T12:03:14;99890.72;;;20.77;100.00
8286;BME280;4181;43.416;24.598;2023-04-22T12:05:45;99893.84;;;20.75;100.00
8286;BME280;4181;43.416;24.598;2023-04-22T12:08:14;99891.47;;;20.43;100.00
8286;BME280;4181;43.416;24.598;2023-04-22T12:10:51;99901.06;;;19.98;100.00
8286;BME280;4181;43.416;24.598;2023-04-22T12:13:21;99894.22;;;20.26;100.00
8286;BME280;4181;43.416;24.598;2023-04-22T12:15:47;99894.41;;;20.38;100.00
8286;BME280;4181;43.416;24.598;2023-04-22T12:18:12;99885.59;;;20.28;100.00
8286;BME280;4181;43.416;24.598;2023-04-22T12:20:39;99894.41;;;20.38;100.00
8286;BME280;4181;43.416;24.598;2023-04-22T12:23:11;99886.22;;;20.33;100.00
8286;BME280;4181;43.416;24.598;2023-04-22T12:25:37;99882.00;;;20.36;100.00
8286;BME280;4181;43.416;24.598;2023-04-22T12:28:03;99886.59;;;20.40;100.00
8286;BME280;4181;43.416;24.598;2023-04-22T12:30:31;99876.28;;;20.32;100.00
8286;BME280;4181;43.416;24.598;2023-04-22T12:32:57;99872.88;;;20.35;100.00
8286;BME280;4181;43.416;24.598;2023-04-22T12:35:23;99857.34;;;20.17;100.00
8286;BME280;4181;43.416;24.598;2023-04-22T12:37:48;99855.28;;;20.48;100.00
8286;BME280;4181;43.416;24.598;2023-04-22T12:40:14;99857.78;;;20.75;100.00
8286;BME280;4181;43.416;24.598;2023-04-22T12:42:39;99849.97;;;20.86;100.00
8286;BME280;4181;43.416;24.598;2023-04-22T12:45:05;99864.78;;;20.64;100.00
8286;BME280;4181;43.416;24.598;2023-04-22T12:47:30;99853.84;;;20.76;100.00
8286;BME280;4181;43.416;24.598;2023-04-22T12:49:56;99852.22;;;20.67;100.00
8286;BME280;4181;43.416;24.598;2023-04-22T12:52:24;99857.78;;;20.67;100.00
8286;BME280;4181;43.416;24.598;2023-04-22T12:54:49;99862.50;;;20.49;100.00
8286;BME280;4181;43.416;24.598;2023-04-22T12:57:15;99863.47;;;20.53;100.00
8286;BME280;4181;43.416;24.598;2023-04-22T12:59:40;99867.34;;;20.35;100.00
8286;BME280;4181;43.416;24.598;2023-04-22T13:02:06;99852.53;;;20.48;100.00
8286;BME280;4181;43.416;24.598;2023-04-22T13:04:31;99860.22;;;20.51;100.00
8286;BME280;4181;43.416;24.598;2023-04-22T13:06:57;99873.53;;;20.32;100.00
8286;BME280;4181;43.416;24.598;2023-04-22T13:09:23;99863.09;;;20.29;100.00
8286;BME280;4181;43.416;24.598;2023-04-22T13:11:50;99879.94;;;19.80;100.00
8286;BME280;4181;43.416;24.598;2023-04-22T13:14:16;99884.41;;;19.59;100.00